sensor_id;sensor_type;location;lat;lon;timestamp;pressure;altitude;pressure_sealevel;temperature;humidity
7376;BME280;3728;42.266;24.944;2022-10-16T00:01:43;100285.88;;;12.53;85.45
7376;BME280;3728;42.266;24.944;2022-10-16T00:04:10;100288.13;;;12.46;86.11
7376;BME280;3728;42.266;24.944;2022-10-16T00:06:38;100295.75;;;12.48;85.85
7376;BME280;3728;42.266;24.944;2022-10-16T00:09:06;100289.69;;;12.47;86.07
7376;BME280;3728;42.266;24.944;2022-10-16T00:11:37;100289.72;;;12.33;86.59
7376;BME280;3728;42.266;24.944;2022-10-16T00:14:09;100294.47;;;12.31;87.32
7376;BME280;3728;42.266;24.944;2022-10-16T00:16:41;100298.47;;;12.29;87.03
7376;BME280;3728;42.266;24.944;2022-10-16T00:19:10;100295.25;;;12.32;87.16
7376;BME280;3728;42.266;24.944;2022-10-16T00:21:38;100294.09;;;12.24;87.67
7376;BME280;3728;42.266;24.944;2022-10-16T00:24:08;100292.34;;;12.20;87.91
7376;BME280;3728;42.266;24.944;2022-10-16T00:26:37;100295.16;;;12.23;88.02
7376;BME280;3728;42.266;24.944;2022-10-16T00:29:06;100296.13;;;12.14;88.60
7376;BME280;3728;42.266;24.944;2022-10-16T00:31:34;100299.22;;;12.16;88.35
7376;BME280;3728;42.266;24.944;2022-10-16T00:34:02;100301.06;;;12.15;88.43
7376;BME280;3728;42.266;24.944;2022-10-16T00:36:29;100302.63;;;12.16;88.65
7376;BME280;3728;42.266;24.944;2022-10-16T00:38:58;100300.97;;;12.07;88.82
7376;BME280;3728;42.266;24.944;2022-10-16T00:41:28;100304.94;;;12.04;88.93
7376;BME280;3728;42.266;24.944;2022-10-16T00:44:00;100302.63;;;12.03;89.23
7376;BME280;3728;42.266;24.944;2022-10-16T00:46:48;100304.84;;;11.96;89.31
7376;BME280;3728;42.266;24.944;2022-10-16T00:49:18;100305.50;;;12.01;89.06
7376;BME280;3728;42.266;24.944;2022-10-16T00:51:52;100308.94;;;12.02;89.72
7376;BME280;3728;42.266;24.944;2022-10-16T00:54:23;100310.66;;;11.93;89.40
7376;BME280;3728;42.266;24.944;2022-10-16T00:57:05;100322.03;;;11.88;89.55
7376;BME280;3728;42.266;24.944;2022-10-16T00:59:36;100311.53;;;11.88;90.08
7376;BME280;3728;42.266;24.944;2022-10-16T01:02:08;100318.13;;;11.86;90.02
7376;BME280;3728;42.266;24.944;2022-10-16T01:04:50;100330.28;;;11.82;90.10
7376;BME280;3728;42.266;24.944;2022-10-16T01:13:05;100327.38;;;11.83;90.73
7376;BME280;3728;42.266;24.944;2022-10-16T01:15:57;100327.59;;;11.87;90.77
7376;BME280;3728;42.266;24.944;2022-10-16T01:19:05;100330.44;;;11.72;91.02
7376;BME280;3728;42.266;24.944;2022-10-16T01:21:43;100335.50;;;11.68;92.04
7376;BME280;3728;42.266;24.944;2022-10-16T01:24:41;100338.00;;;11.73;91.72
7376;BME280;3728;42.266;24.944;2022-10-16T01:30:04;100329.88;;;11.75;91.68
7376;BME280;3728;42.266;24.944;2022-10-16T01:33:01;100334.63;;;11.73;91.76
7376;BME280;3728;42.266;24.944;2022-10-16T01:35:47;100335.25;;;11.83;90.44
7376;BME280;3728;42.266;24.944;2022-10-16T01:38:25;100338.22;;;11.77;90.88
7376;BME280;3728;42.266;24.944;2022-10-16T01:41:06;100337.16;;;11.59;91.61
7376;BME280;3728;42.266;24.944;2022-10-16T01:43:49;100332.78;;;11.54;91.70
7376;BME280;3728;42.266;24.944;2022-10-16T01:46:30;100340.84;;;11.58;92.35
7376;BME280;3728;42.266;24.944;2022-10-16T01:49:02;100337.53;;;11.52;92.09
7376;BME280;3728;42.266;24.944;2022-10-16T01:51:30;100340.63;;;11.54;92.68
7376;BME280;3728;42.266;24.944;2022-10-16T01:54:00;100348.81;;;11.53;92.53
7376;BME280;3728;42.266;24.944;2022-10-16T01:56:29;100349.66;;;11.48;92.73
7376;BME280;3728;42.266;24.944;2022-10-16T01:59:07;100352.69;;;11.55;92.67
7376;BME280;3728;42.266;24.944;2022-10-16T02:01:40;100346.97;;;11.53;92.39
7376;BME280;3728;42.266;24.944;2022-10-16T02:04:29;100357.03;;;11.65;91.63
7376;BME280;3728;42.266;24.944;2022-10-16T02:07:02;100353.97;;;11.58;92.04
7376;BME280;3728;42.266;24.944;2022-10-16T02:09:33;100357.22;;;11.50;91.58
7376;BME280;3728;42.266;24.944;2022-10-16T02:12:08;100351.63;;;11.56;91.97
7376;BME280;3728;42.266;24.944;2022-10-16T02:14:56;100350.00;;;11.60;92.28
7376;BME280;3728;42.266;24.944;2022-10-16T02:17:25;100355.09;;;11.52;92.61
7376;BME280;3728;42.266;24.944;2022-10-16T02:19:55;100351.31;;;11.44;92.22
7376;BME280;3728;42.266;24.944;2022-10-16T02:22:30;100364.84;;;11.33;90.29
7376;BME280;3728;42.266;24.944;2022-10-16T02:25:06;100359.72;;;11.04;90.07
7376;BME280;3728;42.266;24.944;2022-10-16T02:30:58;100358.47;;;10.78;92.11
7376;BME280;3728;42.266;24.944;2022-10-16T02:33:29;100355.34;;;10.76;92.86
7376;BME280;3728;42.266;24.944;2022-10-16T02:35:57;100365.69;;;10.86;92.12
7376;BME280;3728;42.266;24.944;2022-10-16T02:38:25;100365.88;;;10.71;93.00
7376;BME280;3728;42.266;24.944;2022-10-16T02:40:54;100362.53;;;10.65;94.51
7376;BME280;3728;42.266;24.944;2022-10-16T02:43:22;100368.94;;;10.78;94.10
7376;BME280;3728;42.266;24.944;2022-10-16T02:45:50;100366.66;;;10.71;94.19
7376;BME280;3728;42.266;24.944;2022-10-16T02:48:18;100366.38;;;10.73;93.79
7376;BME280;3728;42.266;24.944;2022-10-16T02:50:45;100375.91;;;10.64;93.95
7376;BME280;3728;42.266;24.944;2022-10-16T02:53:12;100371.38;;;10.69;93.87
7376;BME280;3728;42.266;24.944;2022-10-16T02:55:40;100378.34;;;10.79;93.83
7376;BME280;3728;42.266;24.944;2022-10-16T02:58:08;100387.09;;;10.69;93.77
7376;BME280;3728;42.266;24.944;2022-10-16T03:00:36;100382.69;;;10.65;94.24
7376;BME280;3728;42.266;24.944;2022-10-16T03:03:03;100387.22;;;10.59;94.48
7376;BME280;3728;42.266;24.944;2022-10-16T03:05:30;100390.16;;;10.76;93.81
7376;BME280;3728;42.266;24.944;2022-10-16T03:07:58;100388.28;;;10.82;93.66
7376;BME280;3728;42.266;24.944;2022-10-16T03:10:27;100393.56;;;10.77;93.45
7376;BME280;3728;42.266;24.944;2022-10-16T03:12:54;100397.72;;;10.83;92.86
7376;BME280;3728;42.266;24.944;2022-10-16T03:15:22;100396.38;;;10.62;92.90
7376;BME280;3728;42.266;24.944;2022-10-16T03:17:49;100389.22;;;10.44;94.43
7376;BME280;3728;42.266;24.944;2022-10-16T03:20:17;100396.34;;;10.38;95.18
7376;BME280;3728;42.266;24.944;2022-10-16T03:22:44;100400.53;;;10.63;94.60
7376;BME280;3728;42.266;24.944;2022-10-16T03:25:12;100393.47;;;10.63;94.05
7376;BME280;3728;42.266;24.944;2022-10-16T03:27:39;100400.09;;;10.56;93.79
7376;BME280;3728;42.266;24.944;2022-10-16T03:30:07;100404.41;;;10.42;93.97
7376;BME280;3728;42.266;24.944;2022-10-16T03:32:35;100408.41;;;10.63;93.27
7376;BME280;3728;42.266;24.944;2022-10-16T03:35:03;100401.38;;;10.58;93.80
7376;BME280;3728;42.266;24.944;2022-10-16T03:37:31;100404.72;;;10.64;93.40
7376;BME280;3728;42.266;24.944;2022-10-16T03:39:58;100400.59;;;10.58;93.89
7376;BME280;3728;42.266;24.944;2022-10-16T03:42:26;100407.22;;;10.50;94.18
7376;BME280;3728;42.266;24.944;2022-10-16T03:44:53;100415.81;;;10.56;94.21
7376;BME280;3728;42.266;24.944;2022-10-16T03:47:21;100413.84;;;10.43;92.69
7376;BME280;3728;42.266;24.944;2022-10-16T03:49:50;100415.72;;;10.66;90.44
7376;BME280;3728;42.266;24.944;2022-10-16T03:52:18;100420.97;;;10.37;91.43
7376;BME280;3728;42.266;24.944;2022-10-16T03:54:45;100419.06;;;10.09;93.17
7376;BME280;3728;42.266;24.944;2022-10-16T03:57:13;100420.22;;;9.98;92.94
7376;BME280;3728;42.266;24.944;2022-10-16T03:59:40;100423.19;;;9.86;93.76
7376;BME280;3728;42.266;24.944;2022-10-16T04:02:07;100420.66;;;9.71;95.11
7376;BME280;3728;42.266;24.944;2022-10-16T04:04:35;100417.19;;;9.81;94.75
7376;BME280;3728;42.266;24.944;2022-10-16T04:07:03;100416.66;;;9.84;94.18
7376;BME280;3728;42.266;24.944;2022-10-16T04:09:30;100419.47;;;9.92;92.72
7376;BME280;3728;42.266;24.944;2022-10-16T04:11:58;100418.28;;;9.75;90.75
7376;BME280;3728;42.266;24.944;2022-10-16T04:14:25;100418.97;;;9.51;91.33
7376;BME280;3728;42.266;24.944;2022-10-16T04:16:52;100421.13;;;9.78;88.61
7376;BME280;3728;42.266;24.944;2022-10-16T04:19:20;100417.50;;;9.74;88.52
7376;BME280;3728;42.266;24.944;2022-10-16T04:21:47;100418.69;;;9.53;90.36
7376;BME280;3728;42.266;24.944;2022-10-16T04:24:15;100426.06;;;9.41;91.14
7376;BME280;3728;42.266;24.944;2022-10-16T04:26:42;100424.06;;;9.28;91.95
7376;BME280;3728;42.266;24.944;2022-10-16T04:29:10;100424.81;;;9.23;92.91
7376;BME280;3728;42.266;24.944;2022-10-16T04:31:37;100428.53;;;9.17;93.29
7376;BME280;3728;42.266;24.944;2022-10-16T04:34:05;100422.75;;;9.25;93.98
7376;BME280;3728;42.266;24.944;2022-10-16T04:36:32;100423.25;;;9.27;93.54
7376;BME280;3728;42.266;24.944;2022-10-16T04:38:59;100432.91;;;9.32;94.27
7376;BME280;3728;42.266;24.944;2022-10-16T04:41:27;100431.16;;;9.61;93.75
7376;BME280;3728;42.266;24.944;2022-10-16T04:43:54;100437.91;;;9.72;93.54
7376;BME280;3728;42.266;24.944;2022-10-16T04:46:22;100432.28;;;9.94;91.83
7376;BME280;3728;42.266;24.944;2022-10-16T04:48:49;100436.78;;;9.83;93.17
7376;BME280;3728;42.266;24.944;2022-10-16T04:51:17;100439.91;;;9.85;94.52
7376;BME280;3728;42.266;24.944;2022-10-16T04:53:47;100443.47;;;9.99;95.34
7376;BME280;3728;42.266;24.944;2022-10-16T04:56:15;100441.19;;;9.93;95.67
7376;BME280;3728;42.266;24.944;2022-10-16T04:58:43;100441.09;;;10.08;94.77
7376;BME280;3728;42.266;24.944;2022-10-16T05:01:11;100445.44;;;10.22;94.45
7376;BME280;3728;42.266;24.944;2022-10-16T05:03:38;100443.84;;;10.26;94.92
7376;BME280;3728;42.266;24.944;2022-10-16T05:06:06;100447.47;;;10.30;94.66
7376;BME280;3728;42.266;24.944;2022-10-16T05:08:34;100443.31;;;10.24;94.83
7376;BME280;3728;42.266;24.944;2022-10-16T05:11:01;100446.22;;;10.52;94.94
7376;BME280;3728;42.266;24.944;2022-10-16T05:13:29;100445.53;;;10.70;93.68
7376;BME280;3728;42.266;24.944;2022-10-16T05:15:56;100447.00;;;10.81;92.81
7376;BME280;3728;42.266;24.944;2022-10-16T05:18:24;100454.13;;;10.99;92.69
7376;BME280;3728;42.266;24.944;2022-10-16T05:20:51;100460.16;;;11.23;92.60
7376;BME280;3728;42.266;24.944;2022-10-16T05:23:19;100456.53;;;11.38;91.10
7376;BME280;3728;42.266;24.944;2022-10-16T05:25:54;100464.66;;;11.41;89.51
7376;BME280;3728;42.266;24.944;2022-10-16T05:28:26;100467.38;;;11.31;90.26
7376;BME280;3728;42.266;24.944;2022-10-16T05:30:54;100476.63;;;11.47;90.36
7376;BME280;3728;42.266;24.944;2022-10-16T05:33:24;100473.66;;;11.54;90.04
7376;BME280;3728;42.266;24.944;2022-10-16T05:35:51;100479.16;;;11.76;89.54
7376;BME280;3728;42.266;24.944;2022-10-16T05:38:19;100476.09;;;11.88;87.80
7376;BME280;3728;42.266;24.944;2022-10-16T05:40:53;100478.72;;;12.06;88.04
7376;BME280;3728;42.266;24.944;2022-10-16T05:43:21;100485.09;;;12.19;86.94
7376;BME280;3728;42.266;24.944;2022-10-16T05:45:56;100493.69;;;12.24;87.23
7376;BME280;3728;42.266;24.944;2022-10-16T05:48:26;100498.47;;;12.68;85.00
7376;BME280;3728;42.266;24.944;2022-10-16T05:51:05;100503.66;;;13.00;83.20
7376;BME280;3728;42.266;24.944;2022-10-16T05:53:37;100507.81;;;13.07;84.10
7376;BME280;3728;42.266;24.944;2022-10-16T05:56:06;100509.66;;;13.47;81.94
7376;BME280;3728;42.266;24.944;2022-10-16T05:58:36;100507.34;;;13.81;80.34
7376;BME280;3728;42.266;24.944;2022-10-16T06:01:17;100507.59;;;13.93;80.58
7376;BME280;3728;42.266;24.944;2022-10-16T06:03:45;100514.13;;;14.18;79.64
7376;BME280;3728;42.266;24.944;2022-10-16T06:06:17;100513.94;;;14.50;77.13
7376;BME280;3728;42.266;24.944;2022-10-16T06:08:48;100526.72;;;14.21;77.35
7376;BME280;3728;42.266;24.944;2022-10-16T06:11:18;100533.41;;;14.05;79.37
7376;BME280;3728;42.266;24.944;2022-10-16T06:13:51;100528.22;;;13.78;83.21
7376;BME280;3728;42.266;24.944;2022-10-16T06:16:20;100531.19;;;13.49;84.24
7376;BME280;3728;42.266;24.944;2022-10-16T06:18:47;100541.19;;;13.74;83.83
7376;BME280;3728;42.266;24.944;2022-10-16T06:21:20;100536.28;;;13.95;83.36
7376;BME280;3728;42.266;24.944;2022-10-16T06:23:48;100533.72;;;14.03;82.51
7376;BME280;3728;42.266;24.944;2022-10-16T06:26:18;100535.91;;;14.23;81.14
7376;BME280;3728;42.266;24.944;2022-10-16T06:28:47;100539.84;;;14.12;83.07
7376;BME280;3728;42.266;24.944;2022-10-16T06:31:16;100553.28;;;14.11;81.33
7376;BME280;3728;42.266;24.944;2022-10-16T06:33:44;100549.34;;;14.35;79.34
7376;BME280;3728;42.266;24.944;2022-10-16T06:36:15;100549.47;;;14.30;79.55
7376;BME280;3728;42.266;24.944;2022-10-16T06:38:44;100554.81;;;13.90;82.83
7376;BME280;3728;42.266;24.944;2022-10-16T06:41:14;100551.56;;;14.06;82.69
7376;BME280;3728;42.266;24.944;2022-10-16T06:43:43;100555.56;;;14.39;80.47
7376;BME280;3728;42.266;24.944;2022-10-16T06:46:13;100554.38;;;14.46;81.13
7376;BME280;3728;42.266;24.944;2022-10-16T06:48:42;100559.41;;;14.56;80.28
7376;BME280;3728;42.266;24.944;2022-10-16T06:51:18;100558.41;;;14.43;81.63
7376;BME280;3728;42.266;24.944;2022-10-16T06:53:51;100561.41;;;14.50;81.51
7376;BME280;3728;42.266;24.944;2022-10-16T06:56:31;100573.44;;;14.65;79.57
7376;BME280;3728;42.266;24.944;2022-10-16T06:59:00;100576.34;;;14.63;79.15
7376;BME280;3728;42.266;24.944;2022-10-16T07:01:28;100568.91;;;14.87;78.82
7376;BME280;3728;42.266;24.944;2022-10-16T07:03:56;100567.06;;;14.88;77.96
7376;BME280;3728;42.266;24.944;2022-10-16T07:06:25;100572.81;;;14.90;78.03
7376;BME280;3728;42.266;24.944;2022-10-16T07:08:53;100571.94;;;15.03;78.26
7376;BME280;3728;42.266;24.944;2022-10-16T07:11:23;100575.88;;;15.45;75.34
7376;BME280;3728;42.266;24.944;2022-10-16T07:13:52;100588.31;;;15.44;75.75
7376;BME280;3728;42.266;24.944;2022-10-16T07:16:27;100588.19;;;15.66;74.75
7376;BME280;3728;42.266;24.944;2022-10-16T07:18:58;100578.94;;;16.12;72.54
7376;BME280;3728;42.266;24.944;2022-10-16T07:21:29;100582.34;;;15.95;72.78
7376;BME280;3728;42.266;24.944;2022-10-16T07:24:03;100582.53;;;16.24;70.91
7376;BME280;3728;42.266;24.944;2022-10-16T07:26:34;100580.19;;;16.14;71.08
7376;BME280;3728;42.266;24.944;2022-10-16T07:29:04;100584.25;;;16.12;71.65
7376;BME280;3728;42.266;24.944;2022-10-16T07:31:43;100584.69;;;16.39;71.13
7376;BME280;3728;42.266;24.944;2022-10-16T07:34:11;100578.19;;;16.63;69.53
7376;BME280;3728;42.266;24.944;2022-10-16T07:36:40;100577.41;;;16.28;71.64
7376;BME280;3728;42.266;24.944;2022-10-16T07:39:12;100585.34;;;16.45;70.15
7376;BME280;3728;42.266;24.944;2022-10-16T07:41:40;100578.31;;;16.49;71.44
7376;BME280;3728;42.266;24.944;2022-10-16T07:44:07;100574.13;;;17.29;66.32
7376;BME280;3728;42.266;24.944;2022-10-16T07:46:35;100579.59;;;17.61;63.63
7376;BME280;3728;42.266;24.944;2022-10-16T07:49:03;100578.06;;;17.05;66.67
7376;BME280;3728;42.266;24.944;2022-10-16T07:51:32;100577.19;;;16.93;66.81
7376;BME280;3728;42.266;24.944;2022-10-16T07:53:59;100579.19;;;17.04;66.11
7376;BME280;3728;42.266;24.944;2022-10-16T07:56:27;100579.13;;;17.22;66.03
7376;BME280;3728;42.266;24.944;2022-10-16T07:58:58;100580.75;;;17.52;63.32
7376;BME280;3728;42.266;24.944;2022-10-16T08:01:31;100581.38;;;17.78;60.76
7376;BME280;3728;42.266;24.944;2022-10-16T08:03:59;100588.28;;;17.91;61.46
7376;BME280;3728;42.266;24.944;2022-10-16T08:06:28;100588.88;;;17.97;59.56
7376;BME280;3728;42.266;24.944;2022-10-16T08:08:56;100584.75;;;18.08;59.46
7376;BME280;3728;42.266;24.944;2022-10-16T08:11:23;100582.72;;;17.84;59.52
7376;BME280;3728;42.266;24.944;2022-10-16T08:13:51;100579.22;;;18.33;57.26
7376;BME280;3728;42.266;24.944;2022-10-16T08:16:21;100577.88;;;18.07;58.49
7376;BME280;3728;42.266;24.944;2022-10-16T08:18:49;100578.91;;;18.35;56.96
7376;BME280;3728;42.266;24.944;2022-10-16T08:21:21;100580.47;;;18.57;57.05
7376;BME280;3728;42.266;24.944;2022-10-16T08:23:53;100580.56;;;18.93;55.08
7376;BME280;3728;42.266;24.944;2022-10-16T08:26:26;100586.41;;;18.98;53.99
7376;BME280;3728;42.266;24.944;2022-10-16T08:28:54;100571.19;;;18.42;56.61
7376;BME280;3728;42.266;24.944;2022-10-16T08:31:23;100566.81;;;18.25;57.12
7376;BME280;3728;42.266;24.944;2022-10-16T08:33:50;100582.13;;;19.06;53.86
7376;BME280;3728;42.266;24.944;2022-10-16T08:36:19;100576.50;;;19.20;51.90
7376;BME280;3728;42.266;24.944;2022-10-16T08:38:48;100586.13;;;19.12;52.52
7376;BME280;3728;42.266;24.944;2022-10-16T08:50:11;100580.06;;;19.24;52.30
7376;BME280;3728;42.266;24.944;2022-10-16T08:52:43;100578.75;;;19.42;51.26
7376;BME280;3728;42.266;24.944;2022-10-16T08:57:59;100576.66;;;19.47;50.61
7376;BME280;3728;42.266;24.944;2022-10-16T09:00:27;100588.50;;;19.50;51.13
7376;BME280;3728;42.266;24.944;2022-10-16T09:05:57;100578.97;;;19.49;50.89
7376;BME280;3728;42.266;24.944;2022-10-16T09:14:50;100580.84;;;20.12;48.68
7376;BME280;3728;42.266;24.944;2022-10-16T09:17:59;100588.41;;;20.50;47.34
7376;BME280;3728;42.266;24.944;2022-10-16T09:23:50;100578.50;;;20.78;45.20
7376;BME280;3728;42.266;24.944;2022-10-16T09:26:18;100575.53;;;20.52;46.73
7376;BME280;3728;42.266;24.944;2022-10-16T09:28:52;100572.19;;;20.55;46.14
7376;BME280;3728;42.266;24.944;2022-10-16T09:31:21;100574.72;;;20.95;45.29
7376;BME280;3728;42.266;24.944;2022-10-16T09:33:58;100570.00;;;21.04;43.99
7376;BME280;3728;42.266;24.944;2022-10-16T09:36:28;100568.81;;;21.01;44.69
7376;BME280;3728;42.266;24.944;2022-10-16T09:39:11;100576.13;;;21.20;44.37
7376;BME280;3728;42.266;24.944;2022-10-16T09:41:43;100559.47;;;21.07;44.30
7376;BME280;3728;42.266;24.944;2022-10-16T09:47:04;100559.06;;;21.05;44.06
7376;BME280;3728;42.266;24.944;2022-10-16T09:49:37;100562.69;;;21.01;45.60
7376;BME280;3728;42.266;24.944;2022-10-16T09:52:13;100557.31;;;21.13;45.18
7376;BME280;3728;42.266;24.944;2022-10-16T09:54:53;100556.03;;;21.73;44.25
7376;BME280;3728;42.266;24.944;2022-10-16T09:57:25;100555.25;;;21.72;43.19
7376;BME280;3728;42.266;24.944;2022-10-16T09:59:55;100549.34;;;22.17;42.03
7376;BME280;3728;42.266;24.944;2022-10-16T10:02:34;100539.66;;;21.90;43.13
7376;BME280;3728;42.266;24.944;2022-10-16T10:05:05;100536.94;;;21.71;43.60
7376;BME280;3728;42.266;24.944;2022-10-16T10:07:45;100536.31;;;21.77;42.05
7376;BME280;3728;42.266;24.944;2022-10-16T10:10:24;100536.69;;;21.60;43.45
7376;BME280;3728;42.266;24.944;2022-10-16T10:12:56;100538.78;;;21.86;42.41
7376;BME280;3728;42.266;24.944;2022-10-16T10:15:29;100525.63;;;21.77;42.89
7376;BME280;3728;42.266;24.944;2022-10-16T10:18:01;100533.13;;;22.07;42.04
7376;BME280;3728;42.266;24.944;2022-10-16T10:20:34;100529.31;;;22.27;41.63
7376;BME280;3728;42.266;24.944;2022-10-16T10:23:24;100523.16;;;21.85;42.55
7376;BME280;3728;42.266;24.944;2022-10-16T10:31:36;100525.88;;;22.68;40.50
7376;BME280;3728;42.266;24.944;2022-10-16T10:37:37;100518.06;;;22.79;40.38
7376;BME280;3728;42.266;24.944;2022-10-16T10:40:34;100515.56;;;23.38;39.00
7376;BME280;3728;42.266;24.944;2022-10-16T10:45:47;100511.47;;;22.73;40.61
7376;BME280;3728;42.266;24.944;2022-10-16T10:51:09;100503.09;;;23.49;39.16
7376;BME280;3728;42.266;24.944;2022-10-16T10:53:58;100506.16;;;23.48;38.51
7376;BME280;3728;42.266;24.944;2022-10-16T10:57:02;100505.50;;;23.88;37.84
7376;BME280;3728;42.266;24.944;2022-10-16T11:00:10;100500.25;;;23.98;36.83
7376;BME280;3728;42.266;24.944;2022-10-16T11:08:39;100498.81;;;24.37;36.20
7376;BME280;3728;42.266;24.944;2022-10-16T11:11:20;100493.13;;;24.90;36.88
7376;BME280;3728;42.266;24.944;2022-10-16T11:14:10;100501.19;;;25.48;35.34
7376;BME280;3728;42.266;24.944;2022-10-16T11:17:06;100496.00;;;25.94;33.76
7376;BME280;3728;42.266;24.944;2022-10-16T11:20:04;100484.44;;;25.72;34.76
7376;BME280;3728;42.266;24.944;2022-10-16T11:25:59;100483.84;;;25.31;34.51
7376;BME280;3728;42.266;24.944;2022-10-16T11:28:49;100485.63;;;25.09;34.50
7376;BME280;3728;42.266;24.944;2022-10-16T11:31:38;100486.09;;;25.22;34.64
7376;BME280;3728;42.266;24.944;2022-10-16T11:40:22;100470.91;;;25.51;33.34
7376;BME280;3728;42.266;24.944;2022-10-16T11:42:58;100463.78;;;25.11;33.86
7376;BME280;3728;42.266;24.944;2022-10-16T11:45:38;100467.34;;;25.29;34.48
7376;BME280;3728;42.266;24.944;2022-10-16T11:51:05;100472.72;;;26.36;31.93
7376;BME280;3728;42.266;24.944;2022-10-16T11:56:16;100477.38;;;26.82;32.18
7376;BME280;3728;42.266;24.944;2022-10-16T12:07:04;100482.44;;;28.53;30.30
7376;BME280;3728;42.266;24.944;2022-10-16T12:09:39;100469.59;;;28.71;29.52
7376;BME280;3728;42.266;24.944;2022-10-16T12:12:42;100475.44;;;28.08;29.91
7376;BME280;3728;42.266;24.944;2022-10-16T12:15:33;100475.47;;;28.01;29.88
7376;BME280;3728;42.266;24.944;2022-10-16T12:18:22;100474.69;;;28.07;30.60
7376;BME280;3728;42.266;24.944;2022-10-16T12:20:59;100474.38;;;27.84;30.56
7376;BME280;3728;42.266;24.944;2022-10-16T12:23:38;100481.97;;;28.14;29.04
7376;BME280;3728;42.266;24.944;2022-10-16T12:26:28;100474.97;;;27.37;30.46
7376;BME280;3728;42.266;24.944;2022-10-16T12:29:36;100471.66;;;27.95;29.72
7376;BME280;3728;42.266;24.944;2022-10-16T12:32:29;100464.84;;;28.38;29.27
7376;BME280;3728;42.266;24.944;2022-10-16T12:35:26;100473.34;;;28.84;29.11
7376;BME280;3728;42.266;24.944;2022-10-16T12:38:28;100472.88;;;29.30;28.43
7376;BME280;3728;42.266;24.944;2022-10-16T12:41:11;100476.94;;;29.49;27.66
7376;BME280;3728;42.266;24.944;2022-10-16T12:43:43;100471.34;;;29.63;27.15
7376;BME280;3728;42.266;24.944;2022-10-16T12:48:42;100479.88;;;29.28;27.97
7376;BME280;3728;42.266;24.944;2022-10-16T12:54:31;100479.25;;;29.09;28.38
7376;BME280;3728;42.266;24.944;2022-10-16T13:00:21;100485.56;;;29.97;27.68
7376;BME280;3728;42.266;24.944;2022-10-16T13:11:57;100483.91;;;31.03;25.65
7376;BME280;3728;42.266;24.944;2022-10-16T13:17:59;100481.09;;;31.30;25.22
7376;BME280;3728;42.266;24.944;2022-10-16T13:20:55;100491.88;;;31.72;25.07
7376;BME280;3728;42.266;24.944;2022-10-16T13:23:51;100488.75;;;32.10;24.11
7376;BME280;3728;42.266;24.944;2022-10-16T13:26:52;100481.78;;;31.34;24.86
7376;BME280;3728;42.266;24.944;2022-10-16T13:29:32;100485.75;;;31.29;25.72
7376;BME280;3728;42.266;24.944;2022-10-16T13:32:07;100486.31;;;30.97;25.23
7376;BME280;3728;42.266;24.944;2022-10-16T13:34:45;100502.00;;;31.68;24.98
7376;BME280;3728;42.266;24.944;2022-10-16T13:37:21;100502.19;;;32.13;24.71
7376;BME280;3728;42.266;24.944;2022-10-16T13:39:50;100498.47;;;32.39;23.21
7376;BME280;3728;42.266;24.944;2022-10-16T13:42:26;100492.22;;;31.55;24.76
7376;BME280;3728;42.266;24.944;2022-10-16T13:44:55;100480.16;;;30.97;25.75
7376;BME280;3728;42.266;24.944;2022-10-16T13:47:25;100485.94;;;31.38;25.19
7376;BME280;3728;42.266;24.944;2022-10-16T13:50:24;100488.63;;;30.76;25.18
7376;BME280;3728;42.266;24.944;2022-10-16T13:52:51;100488.22;;;30.01;26.67
7376;BME280;3728;42.266;24.944;2022-10-16T13:55:30;100488.19;;;30.31;26.60
7376;BME280;3728;42.266;24.944;2022-10-16T13:58:19;100488.13;;;30.08;26.44
7376;BME280;3728;42.266;24.944;2022-10-16T14:03:33;100477.88;;;30.22;26.49
7376;BME280;3728;42.266;24.944;2022-10-16T14:06:04;100491.09;;;30.17;25.84
7376;BME280;3728;42.266;24.944;2022-10-16T14:09:06;100488.72;;;29.92;26.64
7376;BME280;3728;42.266;24.944;2022-10-16T14:11:55;100497.38;;;29.80;26.54
7376;BME280;3728;42.266;24.944;2022-10-16T14:14:50;100493.69;;;29.97;26.06
7376;BME280;3728;42.266;24.944;2022-10-16T14:17:23;100489.50;;;29.59;26.69
7376;BME280;3728;42.266;24.944;2022-10-16T14:19:58;100495.94;;;28.97;27.77
7376;BME280;3728;42.266;24.944;2022-10-16T14:25:30;100487.56;;;28.88;27.03
7376;BME280;3728;42.266;24.944;2022-10-16T14:31:02;100491.09;;;29.23;26.71
7376;BME280;3728;42.266;24.944;2022-10-16T14:33:51;100490.31;;;28.81;27.77
7376;BME280;3728;42.266;24.944;2022-10-16T14:36:19;100490.75;;;29.13;27.91
7376;BME280;3728;42.266;24.944;2022-10-16T14:39:04;100491.66;;;29.03;27.03
7376;BME280;3728;42.266;24.944;2022-10-16T14:41:49;100502.66;;;28.82;27.37
7376;BME280;3728;42.266;24.944;2022-10-16T14:44:25;100498.13;;;28.14;28.46
7376;BME280;3728;42.266;24.944;2022-10-16T14:47:28;100500.53;;;27.91;28.28
7376;BME280;3728;42.266;24.944;2022-10-16T14:49:56;100497.25;;;27.44;28.98
7376;BME280;3728;42.266;24.944;2022-10-16T14:52:26;100501.13;;;27.29;29.41
7376;BME280;3728;42.266;24.944;2022-10-16T14:54:53;100491.94;;;26.63;29.86
7376;BME280;3728;42.266;24.944;2022-10-16T14:57:25;100494.50;;;25.93;31.08
7376;BME280;3728;42.266;24.944;2022-10-16T14:59:55;100490.78;;;24.85;32.54
7376;BME280;3728;42.266;24.944;2022-10-16T15:02:35;100495.28;;;24.30;33.27
7376;BME280;3728;42.266;24.944;2022-10-16T15:05:13;100491.72;;;23.86;34.20
7376;BME280;3728;42.266;24.944;2022-10-16T15:07:41;100488.59;;;23.24;35.66
7376;BME280;3728;42.266;24.944;2022-10-16T15:10:09;100502.22;;;23.15;35.78
7376;BME280;3728;42.266;24.944;2022-10-16T15:12:37;100490.09;;;22.31;37.28
7376;BME280;3728;42.266;24.944;2022-10-16T15:17:54;100505.66;;;21.87;38.75
7376;BME280;3728;42.266;24.944;2022-10-16T15:20:25;100498.88;;;21.74;39.26
7376;BME280;3728;42.266;24.944;2022-10-16T15:22:54;100500.50;;;21.59;39.67
7376;BME280;3728;42.266;24.944;2022-10-16T15:25:46;100500.81;;;21.39;39.92
7376;BME280;3728;42.266;24.944;2022-10-16T15:28:15;100506.00;;;21.16;40.76
7376;BME280;3728;42.266;24.944;2022-10-16T15:30:44;100503.25;;;20.97;41.18